sensor_id;sensor_type;location;lat;lon;timestamp;pressure;altitude;pressure_sealevel;temperature;humidity
69751;BME280;57335;52.288;6.056;2023-03-14T00:01:17;98796.97;;;11.21;95.59
69751;BME280;57335;52.288;6.056;2023-03-14T00:03:43;98796.97;;;11.26;95.50
69751;BME280;57335;52.288;6.056;2023-03-14T00:06:11;98786.25;;;11.33;94.72
69751;BME280;57335;52.288;6.056;2023-03-14T00:08:37;98791.50;;;11.33;94.47
69751;BME280;57335;52.288;6.056;2023-03-14T00:11:08;98809.06;;;11.43;93.64
69751;BME280;57335;52.288;6.056;2023-03-14T00:13:35;98789.41;;;11.55;92.41
69751;BME280;57335;52.288;6.056;2023-03-14T00:16:07;98798.31;;;11.65;92.21
69751;BME280;57335;52.288;6.056;2023-03-14T00:18:34;98805.69;;;11.63;92.03
69751;BME280;57335;52.288;6.056;2023-03-14T00:21:02;98794.09;;;11.58;91.48
69751;BME280;57335;52.288;6.056;2023-03-14T00:23:30;98802.78;;;11.64;91.36
69751;BME280;57335;52.288;6.056;2023-03-14T00:26:22;98815.88;;;11.64;91.72
69751;BME280;57335;52.288;6.056;2023-03-14T00:28:53;98793.59;;;11.51;91.38
69751;BME280;57335;52.288;6.056;2023-03-14T00:31:19;98805.66;;;11.52;91.18
69751;BME280;57335;52.288;6.056;2023-03-14T00:33:46;98816.66;;;11.54;91.71
69751;BME280;57335;52.288;6.056;2023-03-14T00:36:15;98809.84;;;11.48;91.63
69751;BME280;57335;52.288;6.056;2023-03-14T00:38:43;98802.50;;;11.40;91.71
69751;BME280;57335;52.288;6.056;2023-03-14T00:41:13;98822.44;;;11.46;92.04
69751;BME280;57335;52.288;6.056;2023-03-14T00:43:39;98823.25;;;11.47;91.94
69751;BME280;57335;52.288;6.056;2023-03-14T00:46:07;98806.72;;;11.41;92.16
69751;BME280;57335;52.288;6.056;2023-03-14T00:48:34;98809.06;;;11.43;91.84
69751;BME280;57335;52.288;6.056;2023-03-14T00:51:03;98799.88;;;11.40;91.97
69751;BME280;57335;52.288;6.056;2023-03-14T00:53:29;98816.41;;;11.46;92.01
69751;BME280;57335;52.288;6.056;2023-03-14T00:55:56;98811.16;;;11.41;91.51
69751;BME280;57335;52.288;6.056;2023-03-14T00:58:23;98809.59;;;11.40;89.91
69751;BME280;57335;52.288;6.056;2023-03-14T01:00:49;98809.56;;;11.34;89.08
69751;BME280;57335;52.288;6.056;2023-03-14T01:03:16;98805.63;;;11.32;89.40
69751;BME280;57335;52.288;6.056;2023-03-14T01:05:42;98813.75;;;11.30;88.07
69751;BME280;57335;52.288;6.056;2023-03-14T01:08:09;98809.06;;;11.27;87.40
69751;BME280;57335;52.288;6.056;2023-03-14T01:10:39;98803.03;;;11.32;87.23
69751;BME280;57335;52.288;6.056;2023-03-14T01:13:05;98806.19;;;11.29;86.84
69751;BME280;57335;52.288;6.056;2023-03-14T01:15:33;98816.38;;;11.25;86.70
69751;BME280;57335;52.288;6.056;2023-03-14T01:18:00;98793.81;;;11.14;86.89
69751;BME280;57335;52.288;6.056;2023-03-14T01:20:27;98816.91;;;11.22;86.56
69751;BME280;57335;52.288;6.056;2023-03-14T01:22:53;98811.13;;;11.15;85.57
69751;BME280;57335;52.288;6.056;2023-03-14T01:25:20;98810.31;;;11.09;86.40
69751;BME280;57335;52.288;6.056;2023-03-14T01:27:46;98815.56;;;11.14;86.39
69751;BME280;57335;52.288;6.056;2023-03-14T01:30:13;98810.31;;;11.09;86.63
69751;BME280;57335;52.288;6.056;2023-03-14T01:32:40;98806.91;;;11.04;87.06
69751;BME280;57335;52.288;6.056;2023-03-14T01:35:06;98807.44;;;11.06;86.83
69751;BME280;57335;52.288;6.056;2023-03-14T01:37:33;98811.88;;;11.05;86.94
69751;BME280;57335;52.288;6.056;2023-03-14T01:39:59;98809.53;;;10.98;86.34
69751;BME280;57335;52.288;6.056;2023-03-14T01:42:26;98806.31;;;10.86;86.03
69751;BME280;57335;52.288;6.056;2023-03-14T01:44:55;98815.22;;;10.75;87.73
69751;BME280;57335;52.288;6.056;2023-03-14T01:47:22;98814.91;;;10.66;89.77
69751;BME280;57335;52.288;6.056;2023-03-14T01:49:54;98815.13;;;10.54;91.78
69751;BME280;57335;52.288;6.056;2023-03-14T01:52:39;98825.81;;;10.48;92.36
69751;BME280;57335;52.288;6.056;2023-03-14T01:55:22;98813.69;;;10.31;93.65
69751;BME280;57335;52.288;6.056;2023-03-14T01:58:02;98832.84;;;10.37;94.44
69751;BME280;57335;52.288;6.056;2023-03-14T02:00:30;98831.19;;;10.26;94.99
69751;BME280;57335;52.288;6.056;2023-03-14T02:03:05;98833.50;;;10.22;97.06
69751;BME280;57335;52.288;6.056;2023-03-14T02:05:35;98837.13;;;10.16;98.62
69751;BME280;57335;52.288;6.056;2023-03-14T02:08:07;98828.13;;;10.02;100.00
69751;BME280;57335;52.288;6.056;2023-03-14T02:10:39;98833.63;;;10.00;100.00
69751;BME280;57335;52.288;6.056;2023-03-14T02:13:07;98817.53;;;9.81;100.00
69751;BME280;57335;52.288;6.056;2023-03-14T02:15:34;98820.91;;;9.76;100.00
69751;BME280;57335;52.288;6.056;2023-03-14T02:18:02;98812.19;;;9.66;100.00
69751;BME280;57335;52.288;6.056;2023-03-14T02:20:47;98806.56;;;9.52;100.00
69751;BME280;57335;52.288;6.056;2023-03-14T02:23:26;98799.25;;;9.54;100.00
69751;BME280;57335;52.288;6.056;2023-03-14T02:26:01;98809.94;;;9.47;100.00
69751;BME280;57335;52.288;6.056;2023-03-14T02:28:31;98797.31;;;9.39;100.00
69751;BME280;57335;52.288;6.056;2023-03-14T02:30:57;98787.03;;;9.27;100.00
69751;BME280;57335;52.288;6.056;2023-03-14T02:33:24;98795.63;;;9.23;100.00
69751;BME280;57335;52.288;6.056;2023-03-14T02:35:59;98808.38;;;9.19;100.00
69751;BME280;57335;52.288;6.056;2023-03-14T02:41:20;98798.81;;;9.03;100.00
69751;BME280;57335;52.288;6.056;2023-03-14T02:43:47;98786.50;;;8.98;100.00
69751;BME280;57335;52.288;6.056;2023-03-14T02:46:16;98799.06;;;9.01;100.00
69751;BME280;57335;52.288;6.056;2023-03-14T02:49:05;98806.13;;;9.06;100.00
69751;BME280;57335;52.288;6.056;2023-03-14T02:51:33;98802.19;;;9.03;100.00
69751;BME280;57335;52.288;6.056;2023-03-14T02:54:01;98806.41;;;9.04;100.00
69751;BME280;57335;52.288;6.056;2023-03-14T02:56:27;98794.06;;;8.99;100.00
69751;BME280;57335;52.288;6.056;2023-03-14T02:58:53;98801.47;;;9.08;100.00
69751;BME280;57335;52.288;6.056;2023-03-14T03:01:20;98788.34;;;9.03;100.00
69751;BME280;57335;52.288;6.056;2023-03-14T03:03:46;98774.69;;;8.95;100.00
69751;BME280;57335;52.288;6.056;2023-03-14T03:06:12;98794.16;;;9.10;100.00
69751;BME280;57335;52.288;6.056;2023-03-14T03:08:39;98782.06;;;8.98;100.00
69751;BME280;57335;52.288;6.056;2023-03-14T03:11:05;98785.97;;;9.01;100.00
69751;BME280;57335;52.288;6.056;2023-03-14T03:13:32;98791.22;;;9.01;100.00
69751;BME280;57335;52.288;6.056;2023-03-14T03:15:58;98799.91;;;9.07;100.00
69751;BME280;57335;52.288;6.056;2023-03-14T03:18:25;98794.59;;;9.02;100.00
69751;BME280;57335;52.288;6.056;2023-03-14T03:20:51;98781.25;;;8.98;100.00
69751;BME280;57335;52.288;6.056;2023-03-14T03:23:17;98783.63;;;8.99;100.00
69751;BME280;57335;52.288;6.056;2023-03-14T03:25:51;98795.97;;;9.04;100.00
69751;BME280;57335;52.288;6.056;2023-03-14T03:28:18;98774.66;;;8.90;100.00
69751;BME280;57335;52.288;6.056;2023-03-14T03:30:45;98771.28;;;8.95;100.00
69751;BME280;57335;52.288;6.056;2023-03-14T03:33:12;98774.69;;;8.95;100.00
69751;BME280;57335;52.288;6.056;2023-03-14T03:35:49;98785.78;;;9.08;100.00
69751;BME280;57335;52.288;6.056;2023-03-14T03:38:16;98782.09;;;9.04;100.00
69751;BME280;57335;52.288;6.056;2023-03-14T03:40:42;98780.00;;;9.06;100.00
69751;BME280;57335;52.288;6.056;2023-03-14T03:43:09;98781.53;;;9.02;100.00
69751;BME280;57335;52.288;6.056;2023-03-14T03:45:35;98774.84;;;9.11;100.00
69751;BME280;57335;52.288;6.056;2023-03-14T03:48:01;98777.47;;;9.11;100.00
69751;BME280;57335;52.288;6.056;2023-03-14T03:50:28;98776.91;;;9.09;100.00
69751;BME280;57335;52.288;6.056;2023-03-14T03:52:54;98767.22;;;9.04;100.00
69751;BME280;57335;52.288;6.056;2023-03-14T03:55:21;98758.47;;;8.93;100.00
69751;BME280;57335;52.288;6.056;2023-03-14T03:57:47;98777.47;;;9.11;100.00
69751;BME280;57335;52.288;6.056;2023-03-14T04:00:13;98779.97;;;9.01;100.00
69751;BME280;57335;52.288;6.056;2023-03-14T04:02:40;98788.53;;;8.96;100.00
69751;BME280;57335;52.288;6.056;2023-03-14T04:05:07;98789.13;;;9.03;100.00
69751;BME280;57335;52.288;6.056;2023-03-14T04:07:34;98783.63;;;8.99;100.00
69751;BME280;57335;52.288;6.056;2023-03-14T04:10:00;98783.06;;;8.97;100.00
69751;BME280;57335;52.288;6.056;2023-03-14T04:12:27;98769.22;;;8.97;100.00
69751;BME280;57335;52.288;6.056;2023-03-14T04:14:53;98779.19;;;9.00;100.00
69751;BME280;57335;52.288;6.056;2023-03-14T04:17:19;98772.31;;;8.94;100.00
69751;BME280;57335;52.288;6.056;2023-03-14T04:19:48;98783.13;;;9.03;100.00
69751;BME280;57335;52.288;6.056;2023-03-14T04:22:14;98772.63;;;8.97;100.00
69751;BME280;57335;52.288;6.056;2023-03-14T04:24:40;98750.34;;;8.90;100.00
69751;BME280;57335;52.288;6.056;2023-03-14T04:27:07;98750.34;;;8.90;100.00
69751;BME280;57335;52.288;6.056;2023-03-14T04:29:33;98740.16;;;8.88;100.00
69751;BME280;57335;52.288;6.056;2023-03-14T04:32:00;98765.03;;;8.96;100.00
69751;BME280;57335;52.288;6.056;2023-03-14T04:34:26;98765.88;;;9.02;100.00
69751;BME280;57335;52.288;6.056;2023-03-14T04:36:52;98763.53;;;9.00;100.00
69751;BME280;57335;52.288;6.056;2023-03-14T04:39:19;98753.56;;;8.97;100.00
69751;BME280;57335;52.288;6.056;2023-03-14T04:41:45;98754.34;;;8.97;100.00
69751;BME280;57335;52.288;6.056;2023-03-14T04:44:12;98762.72;;;8.99;100.00
69751;BME280;57335;52.288;6.056;2023-03-14T04:46:38;98756.75;;;9.04;100.00
69751;BME280;57335;52.288;6.056;2023-03-14T04:49:05;98756.00;;;9.09;100.00
69751;BME280;57335;52.288;6.056;2023-03-14T04:51:31;98737.09;;;8.96;100.00
69751;BME280;57335;52.288;6.056;2023-03-14T04:53:58;98755.97;;;9.04;100.00
69751;BME280;57335;52.288;6.056;2023-03-14T04:56:24;98750.72;;;9.04;100.00
69751;BME280;57335;52.288;6.056;2023-03-14T04:58:50;98753.41;;;9.09;100.00
69751;BME280;57335;52.288;6.056;2023-03-14T05:01:17;98745.03;;;9.07;100.00
69751;BME280;57335;52.288;6.056;2023-03-14T05:03:43;98742.50;;;9.17;100.00
69751;BME280;57335;52.288;6.056;2023-03-14T05:06:10;98733.59;;;9.13;100.00
69751;BME280;57335;52.288;6.056;2023-03-14T05:08:36;98730.19;;;9.12;100.00
69751;BME280;57335;52.288;6.056;2023-03-14T05:11:03;98711.59;;;9.09;100.00
69751;BME280;57335;52.288;6.056;2023-03-14T05:13:29;98723.16;;;9.18;100.00
69751;BME280;57335;52.288;6.056;2023-03-14T05:16:06;98727.41;;;9.24;100.00
69751;BME280;57335;52.288;6.056;2023-03-14T05:18:33;98731.56;;;9.20;100.00
69751;BME280;57335;52.288;6.056;2023-03-14T05:21:00;98728.13;;;9.14;100.00
69751;BME280;57335;52.288;6.056;2023-03-14T05:23:26;98736.78;;;9.20;100.00
69751;BME280;57335;52.288;6.056;2023-03-14T05:25:53;98737.28;;;9.17;100.00
69751;BME280;57335;52.288;6.056;2023-03-14T05:28:19;98732.59;;;9.19;100.00
69751;BME280;57335;52.288;6.056;2023-03-14T05:30:46;98735.19;;;9.19;100.00
69751;BME280;57335;52.288;6.056;2023-03-14T05:33:12;98730.81;;;9.25;100.00
69751;BME280;57335;52.288;6.056;2023-03-14T05:35:38;98727.66;;;9.23;100.00
69751;BME280;57335;52.288;6.056;2023-03-14T05:38:05;98721.13;;;9.25;100.00
69751;BME280;57335;52.288;6.056;2023-03-14T05:40:31;98731.38;;;9.32;100.00
69751;BME280;57335;52.288;6.056;2023-03-14T05:42:58;98730.03;;;9.24;100.00
69751;BME280;57335;52.288;6.056;2023-03-14T05:45:24;98732.72;;;9.34;100.00
69751;BME280;57335;52.288;6.056;2023-03-14T05:47:51;98726.13;;;9.27;100.00
69751;BME280;57335;52.288;6.056;2023-03-14T05:50:17;98721.91;;;9.26;100.00
69751;BME280;57335;52.288;6.056;2023-03-14T05:52:44;98728.13;;;9.14;100.00
69751;BME280;57335;52.288;6.056;2023-03-14T05:55:10;98721.00;;;9.10;100.00
69751;BME280;57335;52.288;6.056;2023-03-14T05:57:37;98725.44;;;9.09;100.00
69751;BME280;57335;52.288;6.056;2023-03-14T06:00:03;98728.28;;;9.08;100.00
69751;BME280;57335;52.288;6.056;2023-03-14T06:02:30;98714.91;;;8.99;100.00
69751;BME280;57335;52.288;6.056;2023-03-14T06:04:57;98725.16;;;9.06;100.00
69751;BME280;57335;52.288;6.056;2023-03-14T06:07:23;98726.41;;;8.98;100.00
69751;BME280;57335;52.288;6.056;2023-03-14T06:09:49;98732.34;;;8.93;100.00
69751;BME280;57335;52.288;6.056;2023-03-14T06:12:16;98727.91;;;8.94;100.00
69751;BME280;57335;52.288;6.056;2023-03-14T06:14:42;98715.13;;;8.92;100.00
69751;BME280;57335;52.288;6.056;2023-03-14T06:17:09;98727.13;;;8.93;100.00
69751;BME280;57335;52.288;6.056;2023-03-14T06:19:35;98729.25;;;8.96;100.00
69751;BME280;57335;52.288;6.056;2023-03-14T06:22:01;98731.88;;;8.96;100.00
69751;BME280;57335;52.288;6.056;2023-03-14T06:24:28;98725.56;;;8.92;100.00
69751;BME280;57335;52.288;6.056;2023-03-14T06:26:54;98721.88;;;8.88;100.00
69751;BME280;57335;52.288;6.056;2023-03-14T06:29:21;98729.69;;;8.88;100.00
69751;BME280;57335;52.288;6.056;2023-03-14T06:31:47;98719.25;;;8.88;100.00
69751;BME280;57335;52.288;6.056;2023-03-14T06:34:14;98730.25;;;8.90;100.00
69751;BME280;57335;52.288;6.056;2023-03-14T06:36:40;98722.66;;;8.89;100.00
69751;BME280;57335;52.288;6.056;2023-03-14T06:39:06;98728.34;;;8.86;100.00
69751;BME280;57335;52.288;6.056;2023-03-14T06:41:33;98717.97;;;8.91;100.00
69751;BME280;57335;52.288;6.056;2023-03-14T06:43:59;98727.88;;;8.89;100.00
69751;BME280;57335;52.288;6.056;2023-03-14T06:46:26;98727.13;;;8.93;100.00
69751;BME280;57335;52.288;6.056;2023-03-14T06:48:52;98722.69;;;8.94;100.00
69751;BME280;57335;52.288;6.056;2023-03-14T06:51:19;98729.50;;;8.95;100.00
69751;BME280;57335;52.288;6.056;2023-03-14T06:53:46;98730.88;;;9.03;100.00
69751;BME280;57335;52.288;6.056;2023-03-14T06:56:12;98725.06;;;8.95;100.00
69751;BME280;57335;52.288;6.056;2023-03-14T06:58:39;98730.63;;;9.04;100.00
69751;BME280;57335;52.288;6.056;2023-03-14T07:01:05;98726.97;;;9.05;100.00
69751;BME280;57335;52.288;6.056;2023-03-14T07:03:32;98745.34;;;9.15;100.00
69751;BME280;57335;52.288;6.056;2023-03-14T07:05:58;98752.91;;;9.12;100.00
69751;BME280;57335;52.288;6.056;2023-03-14T07:08:25;98740.34;;;9.09;100.00
69751;BME280;57335;52.288;6.056;2023-03-14T07:10:51;98745.59;;;9.14;100.00
69751;BME280;57335;52.288;6.056;2023-03-14T07:13:18;98759.72;;;9.13;100.00
69751;BME280;57335;52.288;6.056;2023-03-14T07:15:44;98768.34;;;9.13;100.00
69751;BME280;57335;52.288;6.056;2023-03-14T07:18:11;98792.59;;;9.09;100.00
69751;BME280;57335;52.288;6.056;2023-03-14T07:20:37;98828.03;;;8.99;100.00
69751;BME280;57335;52.288;6.056;2023-03-14T07:23:03;98841.59;;;8.74;100.00
69751;BME280;57335;52.288;6.056;2023-03-14T07:25:30;98840.88;;;8.40;100.00
69751;BME280;57335;52.288;6.056;2023-03-14T07:27:56;98878.75;;;8.26;100.00
69751;BME280;57335;52.288;6.056;2023-03-14T07:30:22;98878.59;;;8.15;100.00
69751;BME280;57335;52.288;6.056;2023-03-14T07:32:49;98872.75;;;7.74;100.00
69751;BME280;57335;52.288;6.056;2023-03-14T07:35:15;98888.19;;;7.76;100.00
69751;BME280;57335;52.288;6.056;2023-03-14T07:37:42;98893.44;;;7.64;100.00
69751;BME280;57335;52.288;6.056;2023-03-14T07:40:09;98920.63;;;7.68;100.00
69751;BME280;57335;52.288;6.056;2023-03-14T07:42:35;98919.00;;;7.50;100.00
69751;BME280;57335;52.288;6.056;2023-03-14T07:45:02;98924.22;;;7.50;100.00
69751;BME280;57335;52.288;6.056;2023-03-14T07:47:28;98943.16;;;7.46;100.00
69751;BME280;57335;52.288;6.056;2023-03-14T07:49:55;98957.31;;;7.50;100.00
69751;BME280;57335;52.288;6.056;2023-03-14T07:52:21;98950.13;;;7.28;100.00
69751;BME280;57335;52.288;6.056;2023-03-14T07:54:48;98965.63;;;7.23;100.00
69751;BME280;57335;52.288;6.056;2023-03-14T07:57:14;98964.53;;;7.19;100.00
69751;BME280;57335;52.288;6.056;2023-03-14T07:59:40;98983.31;;;7.21;100.00
69751;BME280;57335;52.288;6.056;2023-03-14T08:02:10;98985.16;;;7.09;100.00
69751;BME280;57335;52.288;6.056;2023-03-14T08:04:37;98981.66;;;6.91;100.00
69751;BME280;57335;52.288;6.056;2023-03-14T08:07:04;98990.03;;;6.93;100.00
69751;BME280;57335;52.288;6.056;2023-03-14T08:09:30;99001.25;;;7.06;100.00
69751;BME280;57335;52.288;6.056;2023-03-14T08:11:56;99016.53;;;7.02;100.00
69751;BME280;57335;52.288;6.056;2023-03-14T08:14:24;99013.47;;;6.93;100.00
69751;BME280;57335;52.288;6.056;2023-03-14T08:16:50;99038.06;;;6.86;100.00
69751;BME280;57335;52.288;6.056;2023-03-14T08:19:17;99064.72;;;6.57;100.00
69751;BME280;57335;52.288;6.056;2023-03-14T08:21:43;99057.50;;;5.99;100.00
69751;BME280;57335;52.288;6.056;2023-03-14T08:24:10;99099.25;;;5.86;100.00
69751;BME280;57335;52.288;6.056;2023-03-14T08:26:36;99107.03;;;5.67;100.00
69751;BME280;57335;52.288;6.056;2023-03-14T08:29:03;99122.69;;;5.60;100.00
69751;BME280;57335;52.288;6.056;2023-03-14T08:31:29;99127.66;;;5.44;100.00
69751;BME280;57335;52.288;6.056;2023-03-14T08:33:58;99143.09;;;5.38;100.00
69751;BME280;57335;52.288;6.056;2023-03-14T08:36:25;99149.00;;;5.27;100.00
69751;BME280;57335;52.288;6.056;2023-03-14T08:38:51;99169.03;;;5.20;100.00
69751;BME280;57335;52.288;6.056;2023-03-14T08:41:18;99190.22;;;5.17;100.00
69751;BME280;57335;52.288;6.056;2023-03-14T08:43:44;99193.31;;;5.07;100.00
69751;BME280;57335;52.288;6.056;2023-03-14T08:46:11;99206.03;;;5.09;100.00
69751;BME280;57335;52.288;6.056;2023-03-14T08:48:37;99222.41;;;5.16;100.00
69751;BME280;57335;52.288;6.056;2023-03-14T08:51:07;99238.81;;;5.10;100.00
69751;BME280;57335;52.288;6.056;2023-03-14T08:53:34;99235.19;;;5.11;100.00
69751;BME280;57335;52.288;6.056;2023-03-14T08:56:01;99261.41;;;5.09;100.00
69751;BME280;57335;52.288;6.056;2023-03-14T08:58:29;99258.63;;;5.04;100.00
69751;BME280;57335;52.288;6.056;2023-03-14T09:00:55;99273.59;;;5.02;100.00
69751;BME280;57335;52.288;6.056;2023-03-14T09:03:22;99286.78;;;5.07;100.00
69751;BME280;57335;52.288;6.056;2023-03-14T09:05:49;99296.91;;;5.15;100.00
69751;BME280;57335;52.288;6.056;2023-03-14T09:08:16;99290.69;;;5.16;100.00
69751;BME280;57335;52.288;6.056;2023-03-14T09:10:43;99316.03;;;5.21;100.00
69751;BME280;57335;52.288;6.056;2023-03-14T09:13:09;99322.44;;;5.18;100.00
69751;BME280;57335;52.288;6.056;2023-03-14T09:15:36;99337.34;;;5.36;100.00
69751;BME280;57335;52.288;6.056;2023-03-14T09:18:02;99338.97;;;5.31;100.00
69751;BME280;57335;52.288;6.056;2023-03-14T09:20:29;99358.66;;;5.52;100.00
69751;BME280;57335;52.288;6.056;2023-03-14T09:22:55;99365.22;;;5.54;100.00
69751;BME280;57335;52.288;6.056;2023-03-14T09:25:22;99385.38;;;5.59;100.00
69751;BME280;57335;52.288;6.056;2023-03-14T09:27:48;99387.63;;;5.49;100.00
69751;BME280;57335;52.288;6.056;2023-03-14T09:30:14;99394.38;;;5.56;100.00
69751;BME280;57335;52.288;6.056;2023-03-14T09:32:41;99396.44;;;5.48;100.00
69751;BME280;57335;52.288;6.056;2023-03-14T09:35:08;99413.22;;;5.52;100.00
69751;BME280;57335;52.288;6.056;2023-03-14T09:37:34;99419.00;;;5.54;100.00
69751;BME280;57335;52.288;6.056;2023-03-14T09:40:01;99419.59;;;5.56;100.00
69751;BME280;57335;52.288;6.056;2023-03-14T09:42:27;99435.94;;;5.63;100.00
69751;BME280;57335;52.288;6.056;2023-03-14T09:45:00;99433.13;;;5.71;100.00
69751;BME280;57335;52.288;6.056;2023-03-14T09:47:28;99448.91;;;5.63;100.00
69751;BME280;57335;52.288;6.056;2023-03-14T09:49:54;99452.69;;;5.74;100.00
69751;BME280;57335;52.288;6.056;2023-03-14T09:52:39;99474.06;;;5.76;100.00
69751;BME280;57335;52.288;6.056;2023-03-14T09:57:37;99479.94;;;5.58;100.00
69751;BME280;57335;52.288;6.056;2023-03-14T10:00:06;99493.66;;;5.78;100.00
69751;BME280;57335;52.288;6.056;2023-03-14T10:02:37;99511.41;;;5.88;100.00
69751;BME280;57335;52.288;6.056;2023-03-14T10:05:13;99514.19;;;5.93;99.53
69751;BME280;57335;52.288;6.056;2023-03-14T10:07:40;99513.03;;;5.83;95.16
69751;BME280;57335;52.288;6.056;2023-03-14T10:10:11;99528.59;;;5.96;100.00
69751;BME280;57335;52.288;6.056;2023-03-14T10:12:40;99536.75;;;6.06;99.42
69751;BME280;57335;52.288;6.056;2023-03-14T10:15:13;99548.88;;;6.19;95.84
69751;BME280;57335;52.288;6.056;2023-03-14T10:17:50;99547.56;;;6.35;99.77
69751;BME280;57335;52.288;6.056;2023-03-14T10:20:38;99570.13;;;6.48;98.30
69751;BME280;57335;52.288;6.056;2023-03-14T10:23:17;99590.53;;;6.12;97.33
69751;BME280;57335;52.288;6.056;2023-03-14T10:28:46;99621.50;;;5.55;100.00
69751;BME280;57335;52.288;6.056;2023-03-14T10:31:14;99628.88;;;5.45;100.00
69751;BME280;57335;52.288;6.056;2023-03-14T10:33:57;99643.88;;;5.43;100.00
69751;BME280;57335;52.288;6.056;2023-03-14T10:36:28;99644.28;;;5.60;100.00
69751;BME280;57335;52.288;6.056;2023-03-14T10:39:21;99652.44;;;5.84;100.00
69751;BME280;57335;52.288;6.056;2023-03-14T10:41:52;99642.22;;;5.82;100.00
69751;BME280;57335;52.288;6.056;2023-03-14T10:44:25;99665.81;;;6.01;100.00
69751;BME280;57335;52.288;6.056;2023-03-14T10:47:28;99669.38;;;5.93;100.00
69751;BME280;57335;52.288;6.056;2023-03-14T10:49:56;99697.41;;;6.04;100.00
69751;BME280;57335;52.288;6.056;2023-03-14T10:52:25;99706.19;;;6.03;100.00
69751;BME280;57335;52.288;6.056;2023-03-14T10:55:11;99717.78;;;6.14;100.00
69751;BME280;57335;52.288;6.056;2023-03-14T10:57:41;99725.78;;;6.12;99.50
69751;BME280;57335;52.288;6.056;2023-03-14T11:03:11;99752.16;;;6.36;99.61
69751;BME280;57335;52.288;6.056;2023-03-14T11:05:46;99779.97;;;6.29;100.00
69751;BME280;57335;52.288;6.056;2023-03-14T11:11:24;99794.63;;;5.76;100.00
69751;BME280;57335;52.288;6.056;2023-03-14T11:14:12;99792.44;;;5.73;98.05
69751;BME280;57335;52.288;6.056;2023-03-14T11:27:51;99846.63;;;6.50;94.78
69751;BME280;57335;52.288;6.056;2023-03-14T11:33:27;99859.75;;;6.82;87.50
69751;BME280;57335;52.288;6.056;2023-03-14T11:36:05;99870.75;;;6.90;87.26
69751;BME280;57335;52.288;6.056;2023-03-14T11:38:44;99882.59;;;6.73;81.64
69751;BME280;57335;52.288;6.056;2023-03-14T11:41:19;99891.16;;;6.93;82.21
69751;BME280;57335;52.288;6.056;2023-03-14T11:43:54;99898.31;;;7.11;82.96
69751;BME280;57335;52.288;6.056;2023-03-14T11:46:32;99905.09;;;7.26;78.83
69751;BME280;57335;52.288;6.056;2023-03-14T11:49:08;99911.97;;;7.07;74.68
69751;BME280;57335;52.288;6.056;2023-03-14T11:51:41;99919.63;;;6.88;76.61
69751;BME280;57335;52.288;6.056;2023-03-14T11:56:52;99933.75;;;7.19;77.98
69751;BME280;57335;52.288;6.056;2023-03-14T11:59:27;99934.94;;;7.23;75.06
69751;BME280;57335;52.288;6.056;2023-03-14T12:02:06;99946.09;;;7.44;79.97
69751;BME280;57335;52.288;6.056;2023-03-14T12:04:42;99947.97;;;7.75;75.46
69751;BME280;57335;52.288;6.056;2023-03-14T12:07:19;99953.25;;;7.93;70.52
69751;BME280;57335;52.288;6.056;2023-03-14T12:09:49;99958.00;;;7.78;62.65
69751;BME280;57335;52.288;6.056;2023-03-14T12:12:20;99967.94;;;7.56;64.02
69751;BME280;57335;52.288;6.056;2023-03-14T12:15:02;99968.19;;;7.34;68.53
69751;BME280;57335;52.288;6.056;2023-03-14T12:17:41;99978.44;;;7.29;70.39
69751;BME280;57335;52.288;6.056;2023-03-14T12:20:23;99994.19;;;7.54;71.87
69751;BME280;57335;52.288;6.056;2023-03-14T12:22:53;99994.94;;;7.68;69.73
69751;BME280;57335;52.288;6.056;2023-03-14T12:25:25;100003.03;;;7.47;68.28
69751;BME280;57335;52.288;6.056;2023-03-14T12:30:28;100005.41;;;7.55;73.53
69751;BME280;57335;52.288;6.056;2023-03-14T12:35:45;100033.09;;;7.56;69.00
69751;BME280;57335;52.288;6.056;2023-03-14T12:40:57;100033.34;;;7.34;70.09
69751;BME280;57335;52.288;6.056;2023-03-14T12:43:29;100049.78;;;7.42;69.74
69751;BME280;57335;52.288;6.056;2023-03-14T12:46:26;100064.28;;;6.91;68.30
69751;BME280;57335;52.288;6.056;2023-03-14T12:51:34;100064.69;;;6.94;65.85
69751;BME280;57335;52.288;6.056;2023-03-14T12:54:28;100074.09;;;6.95;64.14
69751;BME280;57335;52.288;6.056;2023-03-14T12:59:36;100085.50;;;7.21;67.45
69751;BME280;57335;52.288;6.056;2023-03-14T13:04:44;100097.06;;;7.58;63.55
69751;BME280;57335;52.288;6.056;2023-03-14T13:07:28;100100.03;;;7.75;66.48
69751;BME280;57335;52.288;6.056;2023-03-14T13:12:29;100108.09;;;7.61;59.87
69751;BME280;57335;52.288;6.056;2023-03-14T13:14:58;100119.16;;;7.29;59.03
69751;BME280;57335;52.288;6.056;2023-03-14T13:17:32;100123.78;;;7.07;62.08
69751;BME280;57335;52.288;6.056;2023-03-14T13:20:16;100147.25;;;7.14;64.72
69751;BME280;57335;52.288;6.056;2023-03-14T13:22:49;100140.22;;;7.21;66.26
69751;BME280;57335;52.288;6.056;2023-03-14T13:25:15;100146.03;;;7.43;65.72
69751;BME280;57335;52.288;6.056;2023-03-14T13:27:42;100147.47;;;7.06;58.58
69751;BME280;57335;52.288;6.056;2023-03-14T13:30:15;100165.50;;;7.41;64.37
69751;BME280;57335;52.288;6.056;2023-03-14T13:32:44;100175.91;;;7.47;60.43
69751;BME280;57335;52.288;6.056;2023-03-14T13:35:19;100187.31;;;6.86;59.11
69751;BME280;57335;52.288;6.056;2023-03-14T13:37:46;100191.44;;;6.67;60.37
69751;BME280;57335;52.288;6.056;2023-03-14T13:40:26;100189.06;;;6.66;62.89
69751;BME280;57335;52.288;6.056;2023-03-14T13:43:06;100199.25;;;6.67;60.31
69751;BME280;57335;52.288;6.056;2023-03-14T13:46:06;100215.88;;;6.59;59.54
69751;BME280;57335;52.288;6.056;2023-03-14T13:48:34;100217.88;;;6.57;59.64
69751;BME280;57335;52.288;6.056;2023-03-14T13:51:04;100221.50;;;6.70;59.51
69751;BME280;57335;52.288;6.056;2023-03-14T13:53:32;100231.72;;;6.71;60.19
69751;BME280;57335;52.288;6.056;2023-03-14T13:56:11;100240.72;;;6.69;61.21
69751;BME280;57335;52.288;6.056;2023-03-14T13:58:39;100247.22;;;6.99;62.69
69751;BME280;57335;52.288;6.056;2023-03-14T14:01:12;100255.25;;;7.05;59.34